Flight Track Log - Related Links

Times and Time Zones

All times are in EDT time to prevent confusion due to time zone crossing. See the N770NC flight status page for this flight to view local times or setup timezone preferences in your user account.

Time Position Orientation Groundspeed Altitude Reporting Facility
EDT Latitude Longitude Course Direction KTS MPH feet Rate Location/Type
Wed 03:21:39 PM 41.9000 -87.8667 166° South 243 280 3,600  Level Chicago TRACON
Wed 03:21:55 PM 41.8878 -87.8592 155° Southeast 233 268 4,300 1,538 Climbing Chicago Center
Wed 03:22:57 PM 41.8172 -87.8456 172° South 244 281 5,600 1,742 Climbing Chicago Center
Wed 03:23:00 PM 41.6686 -87.7598 180° South  Level Estimated
Wed 03:23:59 PM 41.7431 -87.8267 169° South 262 302 7,900  Level Chicago Center
Wed 03:24:00 PM 41.5642 -87.7112 168° South  Level Estimated
Wed 03:25:00 PM 41.4634 -87.7719 204° Southwest  Level FlightAware Approximate
Wed 03:25:01 PM 41.6650 -87.8075 170° South 282 325 9,800  Level Chicago Center
Wed 03:26:00 PM 41.3594 -87.7221 166° South  Level Estimated
Wed 03:26:03 PM 41.5833 -87.7839 168° South 296 341 11,700  Level Chicago Center
Wed 03:27:05 PM 41.4972 -87.7736 175° South 307 353 12,900 1,161 Climbing Chicago Center
Wed 03:28:07 PM 41.4000 -87.7828 184° South 343 395 14,100 1,694 Climbing Chicago Center
Wed 03:29:09 PM 41.2781 -87.7964 185° South 363 418 16,400 1,872 Climbing Chicago Center
Wed 03:30:12 PM 41.1725 -87.7817 174° South 381 438 18,000 1,440 Climbing Chicago Center
Wed 03:31:14 PM 41.0636 -87.7586 171° South 395 455 19,400 1,403 Climbing Chicago Center
Wed 03:32:16 PM 40.9517 -87.7300 169° South 406 467 20,900 1,403 Climbing Chicago Center
Wed 03:33:18 PM 40.8361 -87.7031 170° South 419 482 22,300 1,306 Climbing Chicago Center
Wed 03:34:20 PM 40.6994 -87.6728 170° South 419 482 23,600 1,161 Climbing Chicago Center
Wed 03:35:22 PM 40.5842 -87.6486 171° South 420 483 24,700 1,065 Climbing Chicago Center
Wed 03:36:24 PM 40.4703 -87.6092 165° South 424 488 25,800 919 Climbing Chicago Center
Wed 03:37:26 PM 40.3575 -87.5628 163° South 426 490 26,600 726 Climbing Chicago Center
Wed 03:38:28 PM 40.2419 -87.5206 164° South 433 498 27,300 774 Climbing Chicago Center
Wed 03:39:30 PM 40.1050 -87.4569 160° South 437 503 28,200 788 Climbing Chicago Center
Wed 03:40:07 PM 40.0464 -87.4300 161° South 441 507 28,600 485 Climbing Indianapolis Center
Wed 03:41:09 PM 39.9289 -87.3692 158° South 448 516 29,000 194 Climbing Indianapolis Center
Wed 03:42:11 PM 39.8044 -87.3144 161° South 464 534 29,000  Level Indianapolis Center
Wed 03:43:13 PM 39.6467 -87.2672 167° South 479 551 29,000  Level Indianapolis Center
Wed 03:44:15 PM 39.5108 -87.2469 173° South 488 562 29,000  Level Indianapolis Center
Wed 03:45:18 PM 39.3783 -87.2292 174° South 481 554 29,000  Level Indianapolis Center
Wed 03:46:20 PM 39.2469 -87.1889 167° South 483 556 29,000  Level Indianapolis Center
Wed 03:47:22 PM 39.1164 -87.1442 165° South 483 556 29,000  Level Indianapolis Center
Wed 03:48:24 PM 38.9869 -87.0919 163° South 485 558 29,000  Level Indianapolis Center
Wed 03:49:26 PM 38.8575 -87.0381 162° South 486 559 29,000  Level Indianapolis Center
Wed 03:50:28 PM 38.7014 -86.9733 162° South 487 560 29,000  Level Indianapolis Center
Wed 03:51:30 PM 38.5711 -86.9175 161° South 488 562 29,000  Level Indianapolis Center
Wed 03:52:32 PM 38.4400 -86.8608 161° South 489 563 29,000  Level Indianapolis Center
Wed 03:53:34 PM 38.3078 -86.8025 161° South 490 564 29,000  Level Indianapolis Center
Wed 03:54:36 PM 38.1764 -86.7478 162° South 488 562 29,000  Level Indianapolis Center
Wed 03:55:38 PM 38.0433 -86.7036 165° South 488 562 29,000  Level Indianapolis Center
Wed 03:56:40 PM 37.9100 -86.6664 168° South 487 560 29,000  Level Indianapolis Center
Wed 03:57:42 PM 37.7758 -86.6383 171° South 484 557 29,000  Level Indianapolis Center
Wed 03:58:44 PM 37.6397 -86.6239 175° South 486 559 29,000  Level Indianapolis Center
Wed 03:59:46 PM 37.4928 -86.6072 175° South 489 563 29,000  Level Indianapolis Center
Wed 04:00:49 PM 37.3556 -86.5881 174° South 491 565 29,000  Level Indianapolis Center
Wed 04:01:51 PM 37.2194 -86.5553 169° South 493 567 29,000  Level Indianapolis Center
Wed 04:02:56 PM 37.0572 -86.4994 165° South 496 571 29,000  Level Memphis Center
Wed 04:03:56 PM 36.9244 -86.4514 164° South 502 578 29,000  Level Memphis Center
Wed 04:04:56 PM 36.7900 -86.4164 168° South 497 572 29,000  Level Memphis Center
Wed 04:05:56 PM 36.6542 -86.4075 177° South 490 564 29,000  Level Memphis Center
Wed 04:06:56 PM 36.5189 -86.4089 180° South 490 564 29,000  Level Memphis Center
Wed 04:07:56 PM 36.3983 -86.4175 183° South 490 564 29,000  Level Memphis Center
Wed 04:08:56 PM 36.2608 -86.4242 182° South 490 564 29,000  Level Memphis Center
Wed 04:09:56 PM 36.1233 -86.4231 180° South 490 564 29,000  Level Memphis Center
Wed 04:11:44 PM 35.8669 -86.3911 174° South 516 594 29,000  Level Atlanta Center
Wed 04:12:44 PM 35.7339 -86.3667 172° South 496 571 29,000  Level Atlanta Center
Wed 04:13:44 PM 35.6119 -86.2994 156° South 491 565 29,000  Level Atlanta Center
Wed 04:14:44 PM 35.4989 -86.2069 146° Southeast 483 556 29,000  Level Atlanta Center
Wed 04:15:44 PM 35.3858 -86.1122 146° Southeast 495 570 29,000 -50 Level Atlanta Center
Wed 04:16:44 PM 35.2956 -86.0236 141° Southeast 483 556 28,900 -800 Descending Atlanta Center
Wed 04:17:44 PM 35.2114 -85.9378 140° Southeast 430 495 27,400 -2,050 Descending Atlanta Center
Wed 04:18:44 PM 35.1208 -85.8544 143° Southeast 399 459 24,800 -1,700 Descending Atlanta Center
Wed 04:19:44 PM 35.0300 -85.7839 148° Southeast 384 442 24,000 -400 Descending Atlanta Center
Wed 04:20:44 PM 34.9431 -85.7186 148° Southeast 372 428 24,000  Level Atlanta Center
Wed 04:21:44 PM 34.8481 -85.6586 153° Southeast 372 428 24,000 -200 Level Atlanta Center
Wed 04:22:44 PM 34.7508 -85.5986 153° Southeast 378 435 23,600 -950 Descending Atlanta Center
Wed 04:23:44 PM 34.6597 -85.5364 151° Southeast 378 435 22,100 -1,900 Descending Atlanta Center
Wed 04:24:44 PM 34.5769 -85.4717 147° Southeast 378 435 19,800 -2,000 Descending Atlanta Center
Wed 04:25:44 PM 34.4983 -85.3997 143° Southeast 361 415 18,100 -1,800 Descending Atlanta Center
Wed 04:26:44 PM 34.4283 -85.3181 136° Southeast 355 409 16,200 -1,850 Descending Atlanta Center
Wed 04:27:44 PM 34.3539 -85.2592 147° Southeast 335 386 14,400 -1,150 Descending Atlanta Center
Wed 04:28:44 PM 34.2750 -85.2103 153° Southeast 324 373 13,900 -200 Descending Atlanta Center
Wed 04:29:44 PM 34.2044 -85.1692 154° Southeast 315 362 14,000 50 Climbing Atlanta Center
Wed 04:30:44 PM 34.1342 -85.1028 142° Southeast 321 369 14,000  Level Atlanta Center
Wed 04:31:44 PM 34.0783 -85.0169 128° Southeast 321 369 14,000 -300 Level Atlanta Center
Wed 04:32:44 PM 34.0228 -84.9286 127° Southeast 332 382 13,400 -650 Descending Atlanta Center
Wed 04:33:44 PM 33.9669 -84.8453 129° Southeast 323 372 12,700 -750 Descending Atlanta Center
Wed 04:34:44 PM 33.9089 -84.7697 133° Southeast 318 366 11,900 -404 Descending Atlanta Center
Wed 04:35:28 PM 33.8500 -84.7000 135° Southeast 307 353 12,000 58 Climbing Atlanta TRACON
Wed 04:36:28 PM 33.7833 -84.6333 140° Southeast 319 367 12,000  Level Atlanta TRACON
Wed 04:37:23 PM 33.7333 -84.5667 132° Southeast 290 334 12,000 -678 Level Atlanta TRACON
Wed 04:38:23 PM 33.7333 -84.4833 90° East 270 311 10,700 -1,300 Descending Atlanta TRACON
Wed 04:39:23 PM 33.7333 -84.4000 90° East 268 308 9,400 -1,824 Descending Atlanta TRACON
Wed 04:40:28 PM 33.7333 -84.3000 90° East 248 285 6,900 -2,016 Descending Atlanta TRACON
Wed 04:41:28 PM 33.7500 -84.2167 76° East 235 270 5,200 -942 Descending Atlanta TRACON
Wed 04:42:29 PM 33.7500 -84.1333 90° East 239 275 5,000 -99 Descending Atlanta TRACON
Wed 04:43:29 PM 33.7500 -84.0667 90° East 245 282 5,000  Level Atlanta TRACON
Wed 04:44:29 PM 33.7167 -83.9833 116° Southeast 254 292 5,000  Level Atlanta TRACON
Wed 04:45:29 PM 33.6667 -84.0000 196° South 243 280 5,000 -50 Level Atlanta TRACON
Wed 04:46:29 PM 33.6500 -84.0667 253° West 209 241 4,900  Descending Atlanta TRACON
Wed 04:47:29 PM 33.6500 -84.1333 270° West 189 217 5,000 -250 Climbing Atlanta TRACON
Wed 04:48:29 PM 33.6500 -84.1833 270° West 192 221 4,400 -807 Descending Atlanta TRACON
Wed 04:49:28 PM 33.6500 -84.2500 270° West 183 211 3,400 -1,017 Descending Atlanta TRACON

Login

Don't have an account? Register now (free) for customized features, flight alerts, and more!